createdAt,value
2023-01-10T00:01:53.104Z,4.40
2023-01-10T00:04:21.314Z,3.20
2023-01-10T00:06:49.433Z,2.85
2023-01-10T00:09:17.558Z,4.53
2023-01-10T00:12:02.850Z,2.92
2023-01-10T00:14:35.081Z,2.85
2023-01-10T00:17:03.369Z,3.13
2023-01-10T00:19:31.509Z,3.03
2023-01-10T00:22:13.708Z,4.38
2023-01-10T00:24:43.088Z,3.58
2023-01-10T00:27:17.919Z,5.13
2023-01-10T00:29:49.717Z,3.42
2023-01-10T00:32:17.945Z,3.30
2023-01-10T00:34:46.096Z,4.18
2023-01-10T00:37:14.255Z,1.33
2023-01-10T00:39:42.487Z,3.08
2023-01-10T00:42:29.539Z,3.35
2023-01-10T00:44:59.039Z,2.05
2023-01-10T00:47:27.172Z,1.88
2023-01-10T00:49:55.280Z,2.35
2023-01-10T00:52:23.373Z,1.77
2023-01-10T00:54:51.439Z,2.08
2023-01-10T00:57:19.573Z,2.38
2023-01-10T00:59:47.640Z,2.15
2023-01-10T01:02:17.265Z,3.05
2023-01-10T01:04:45.425Z,1.40
2023-01-10T01:07:13.524Z,1.67
2023-01-10T01:10:01.639Z,1.27
2023-01-10T01:12:29.716Z,0.85
2023-01-10T01:14:58.287Z,1.45
2023-01-10T01:17:27.745Z,0.95
2023-01-10T01:19:55.869Z,1.17
2023-01-10T01:22:23.993Z,2.25
2023-01-10T01:24:52.089Z,1.20
2023-01-10T01:27:21.030Z,1.48
2023-01-10T01:29:49.120Z,2.80
2023-01-10T01:32:17.244Z,1.10
2023-01-10T01:34:47.024Z,2.80
2023-01-10T01:37:15.087Z,1.80
2023-01-10T01:39:44.563Z,1.33
2023-01-10T01:42:22.984Z,1.60
2023-01-10T01:45:32.255Z,1.50
2023-01-10T01:48:07.834Z,1.23
2023-01-10T01:50:44.867Z,0.98
2023-01-10T01:53:17.485Z,0.60
2023-01-10T01:55:47.427Z,1.02
2023-01-10T01:58:18.847Z,1.10
2023-01-10T02:01:14.101Z,0.88
2023-01-10T02:03:44.360Z,0.93
2023-01-10T02:06:14.840Z,1.67
2023-01-10T02:08:52.219Z,0.50
2023-01-10T02:11:20.333Z,0.60
2023-01-10T02:13:51.737Z,0.60
2023-01-10T02:16:20.103Z,1.40
2023-01-10T02:18:48.332Z,0.70
2023-01-10T02:21:47.915Z,0.73
2023-01-10T02:24:54.584Z,0.82
2023-01-10T02:27:29.311Z,0.80
2023-01-10T02:30:26.828Z,1.00
2023-01-10T02:33:05.346Z,1.83
2023-01-10T02:35:47.108Z,1.00
2023-01-10T02:38:24.249Z,0.70
2023-01-10T02:41:02.739Z,0.73
2023-01-10T02:43:35.795Z,0.57
2023-01-10T02:46:07.372Z,0.75
2023-01-10T02:48:37.019Z,0.90
2023-01-10T02:51:11.236Z,1.17
2023-01-10T02:53:42.876Z,0.95
2023-01-10T02:56:55.375Z,0.40
2023-01-10T02:59:52.693Z,1.55
2023-01-10T03:02:32.384Z,0.82
2023-01-10T03:05:06.521Z,3.40
2023-01-10T03:07:38.673Z,0.82
2023-01-10T03:10:10.226Z,0.82
2023-01-10T03:12:45.405Z,1.30
2023-01-10T03:15:17.798Z,1.33
2023-01-10T03:17:51.186Z,1.30
2023-01-10T03:20:22.084Z,2.45
2023-01-10T03:22:52.754Z,2.25
2023-01-10T03:25:24.571Z,1.10
2023-01-10T03:28:01.646Z,0.70
2023-01-10T03:30:37.106Z,0.80
2023-01-10T03:33:06.504Z,0.75
2023-01-10T03:35:48.393Z,0.52
2023-01-10T03:38:22.991Z,0.90
2023-01-10T03:40:57.720Z,0.55
2023-01-10T03:43:51.455Z,0.40
2023-01-10T03:46:27.621Z,0.52
2023-01-10T03:48:58.016Z,0.52
2023-01-10T03:51:29.248Z,0.60
2023-01-10T03:54:03.152Z,0.50
2023-01-10T03:56:31.297Z,0.52
2023-01-10T03:58:59.885Z,0.57
2023-01-10T04:01:28.017Z,0.50
2023-01-10T04:03:56.207Z,0.60
2023-01-10T04:06:24.363Z,0.40
2023-01-10T04:08:53.872Z,0.50
2023-01-10T04:11:22.019Z,0.75
2023-01-10T04:13:50.145Z,0.55
2023-01-10T04:16:18.339Z,0.70
2023-01-10T04:18:46.517Z,0.70
2023-01-10T04:21:14.634Z,0.80
2023-01-10T04:23:42.790Z,0.75
2023-01-10T04:26:12.471Z,1.20
2023-01-10T04:28:40.644Z,0.85
2023-01-10T04:31:08.844Z,1.08
2023-01-10T04:33:39.136Z,1.00
2023-01-10T04:36:07.958Z,0.57
2023-01-10T04:38:36.126Z,0.52
2023-01-10T04:41:04.218Z,0.70
2023-01-10T04:43:34.562Z,0.50
2023-01-10T04:46:02.810Z,0.85
2023-01-10T04:48:31.056Z,0.70
2023-01-10T04:50:59.172Z,1.30
2023-01-10T04:53:27.332Z,0.75
2023-01-10T04:55:55.548Z,0.82
2023-01-10T04:58:23.702Z,1.30
2023-01-10T05:00:53.923Z,1.20
2023-01-10T05:03:22.043Z,1.10
2023-01-10T05:05:59.361Z,0.40
2023-01-10T05:08:27.552Z,0.85
2023-01-10T05:10:55.815Z,1.00
2023-01-10T05:13:25.146Z,0.68
2023-01-10T05:15:58.147Z,0.85
2023-01-10T05:18:26.846Z,0.80
2023-01-10T05:21:01.975Z,0.60
2023-01-10T05:23:30.754Z,0.65
2023-01-10T05:25:58.914Z,0.50
2023-01-10T05:28:27.046Z,1.00
2023-01-10T05:30:56.545Z,0.30
2023-01-10T05:33:24.754Z,0.40
2023-01-10T05:35:52.935Z,0.40
2023-01-10T05:38:27.065Z,1.00
2023-01-10T05:40:58.336Z,0.38
2023-01-10T05:43:27.866Z,0.82
2023-01-10T05:45:57.477Z,0.57
2023-01-10T05:48:25.637Z,0.45
2023-01-10T05:50:54.195Z,0.65
2023-01-10T05:53:22.586Z,1.70
2023-01-10T05:55:55.022Z,0.47
2023-01-10T05:58:23.902Z,0.38
2023-01-10T06:00:52.460Z,1.00
2023-01-10T06:03:23.162Z,0.80
2023-01-10T06:05:51.638Z,1.55
2023-01-10T06:08:19.696Z,1.95
2023-01-10T06:10:47.881Z,2.63
2023-01-10T06:13:16.197Z,2.92
2023-01-10T06:15:45.166Z,6.90
2023-01-10T06:18:13.707Z,2.28
2023-01-10T06:20:44.013Z,3.92
2023-01-10T06:23:12.381Z,8.23
2023-01-10T06:25:41.817Z,2.15
2023-01-10T06:28:10.710Z,1.35
2023-01-10T06:30:38.888Z,1.30
2023-01-10T06:33:08.789Z,1.48
2023-01-10T06:35:37.080Z,0.93
2023-01-10T06:38:06.712Z,1.30
2023-01-10T06:40:34.836Z,0.80
2023-01-10T06:43:02.985Z,0.82
2023-01-10T06:45:31.178Z,1.73
2023-01-10T06:47:59.438Z,0.85
2023-01-10T06:50:27.596Z,0.65
2023-01-10T06:52:59.726Z,0.65
2023-01-10T06:55:29.830Z,4.38
2023-01-10T06:57:58.357Z,1.90
2023-01-10T07:00:27.502Z,0.77
2023-01-10T07:02:56.341Z,1.45
2023-01-10T07:05:24.576Z,0.80
2023-01-10T07:07:52.824Z,0.80
2023-01-10T07:10:21.115Z,1.25
2023-01-10T07:12:50.733Z,1.90
2023-01-10T07:15:18.963Z,2.00
2023-01-10T07:17:47.100Z,1.05
2023-01-10T07:20:15.299Z,1.10
2023-01-10T07:22:43.454Z,0.80
2023-01-10T07:25:11.953Z,1.10
2023-01-10T07:27:43.420Z,2.15
2023-01-10T07:30:13.734Z,1.40
2023-01-10T07:32:41.977Z,1.25
2023-01-10T07:35:10.852Z,3.97
2023-01-10T07:37:39.011Z,1.10
2023-01-10T07:40:08.780Z,2.50
2023-01-10T07:42:37.115Z,2.33
2023-01-10T07:45:07.474Z,7.25
2023-01-10T07:47:37.255Z,2.78
2023-01-10T07:50:06.326Z,0.73
2023-01-10T07:52:34.832Z,0.80
2023-01-10T07:55:02.978Z,3.50
2023-01-10T07:57:31.219Z,1.02
2023-01-10T07:59:59.499Z,0.60
2023-01-10T08:02:27.812Z,1.85
2023-01-10T08:04:57.461Z,5.45
2023-01-10T08:07:25.751Z,1.52
2023-01-10T08:09:53.944Z,5.05
2023-01-10T08:12:24.693Z,4.90
2023-01-10T08:14:53.049Z,1.15
2023-01-10T08:17:21.646Z,1.77
2023-01-10T08:19:49.911Z,0.63
2023-01-10T08:22:19.573Z,1.40
2023-01-10T08:24:47.678Z,1.65
2023-01-10T08:27:15.915Z,2.15
2023-01-10T08:29:44.111Z,0.75
2023-01-10T08:32:12.624Z,1.20
2023-01-10T08:34:41.040Z,6.63
2023-01-10T08:37:09.301Z,3.80
2023-01-10T08:39:39.560Z,3.03
2023-01-10T08:42:07.771Z,1.02
2023-01-10T08:44:36.145Z,1.63
2023-01-10T08:47:04.317Z,2.03
2023-01-10T08:49:32.656Z,1.42
2023-01-10T08:52:02.386Z,1.23
2023-01-10T08:54:30.580Z,3.22
2023-01-10T08:57:00.312Z,1.83
2023-01-10T08:59:28.566Z,2.70
2023-01-10T09:01:58.615Z,0.82
2023-01-10T09:04:28.687Z,1.55
2023-01-10T09:06:57.483Z,6.45
2023-01-10T09:09:25.664Z,2.08
2023-01-10T09:11:53.807Z,2.13
2023-01-10T09:14:23.536Z,2.58
2023-01-10T09:16:52.553Z,2.53
2023-01-10T09:19:20.703Z,3.13
2023-01-10T09:21:48.818Z,1.15
2023-01-10T09:24:16.982Z,2.20
2023-01-10T09:26:45.149Z,1.45
2023-01-10T09:29:13.395Z,0.60
2023-01-10T09:31:45.031Z,1.08
2023-01-10T09:34:13.163Z,0.70
2023-01-10T09:36:41.332Z,1.27
2023-01-10T09:39:09.507Z,6.97
2023-01-10T09:42:00.503Z,3.75
2023-01-10T09:44:43.346Z,3.50
2023-01-10T09:47:22.973Z,2.13
2023-01-10T09:50:01.484Z,2.35
2023-01-10T09:52:34.616Z,7.97
2023-01-10T09:55:16.648Z,3.42
2023-01-10T09:57:44.959Z,1.92
2023-01-10T10:00:18.449Z,1.25
2023-01-10T10:02:52.737Z,0.88
2023-01-10T10:05:22.639Z,1.05
2023-01-10T10:07:55.409Z,1.83
2023-01-10T10:10:27.065Z,1.70
2023-01-10T10:13:23.184Z,1.98
2023-01-10T10:16:05.567Z,2.28
2023-01-10T10:18:44.522Z,1.25
2023-01-10T10:21:21.068Z,1.63
2023-01-10T10:23:59.455Z,2.13
2023-01-10T10:26:34.130Z,1.35
2023-01-10T10:29:37.924Z,1.27
2023-01-10T10:32:26.510Z,1.83
2023-01-10T10:35:01.845Z,1.00
2023-01-10T10:37:35.011Z,1.77
2023-01-10T10:40:06.207Z,2.20
2023-01-10T10:42:39.637Z,0.75
2023-01-10T10:45:18.197Z,1.63
2023-01-10T10:47:52.143Z,2.22
2023-01-10T10:50:30.264Z,2.95
2023-01-10T10:53:02.934Z,1.88
2023-01-10T10:55:35.240Z,3.17
2023-01-10T10:58:05.264Z,2.03
2023-01-10T11:00:34.033Z,4.75
2023-01-10T11:03:07.350Z,2.15
2023-01-10T11:05:40.922Z,11.63
2023-01-10T11:08:12.506Z,2.92
2023-01-10T11:10:49.712Z,3.45
2023-01-10T11:13:24.353Z,2.65
2023-01-10T11:15:55.901Z,2.53
2023-01-10T11:18:28.322Z,4.32
2023-01-10T11:21:00.601Z,2.38
2023-01-10T11:23:41.953Z,2.83
2023-01-10T11:26:23.253Z,3.30
2023-01-10T11:28:53.610Z,2.53
2023-01-10T11:31:29.134Z,1.75
2023-01-10T11:33:58.539Z,1.17
2023-01-10T11:36:28.138Z,2.50
2023-01-10T11:39:02.244Z,3.58
2023-01-10T11:41:34.710Z,1.73
2023-01-10T11:44:21.915Z,4.13
2023-01-10T11:46:53.139Z,3.05
2023-01-10T11:49:28.401Z,3.53
2023-01-10T11:52:03.124Z,4.25
2023-01-10T11:54:33.702Z,8.35
2023-01-10T11:57:05.375Z,2.80
2023-01-10T11:59:34.195Z,0.80
2023-01-10T12:02:05.984Z,1.80
2023-01-10T12:04:40.817Z,1.48
2023-01-10T12:07:12.939Z,1.27
2023-01-10T12:09:43.568Z,1.27
2023-01-10T12:12:21.497Z,2.00
2023-01-10T12:14:50.803Z,2.00
2023-01-10T12:17:25.113Z,1.35
2023-01-10T12:19:55.444Z,0.60
2023-01-10T12:22:31.198Z,1.52
2023-01-10T12:25:00.972Z,0.85
2023-01-10T12:27:30.177Z,1.33
2023-01-10T12:30:05.925Z,0.77
2023-01-10T12:32:39.748Z,1.27
2023-01-10T12:35:15.145Z,1.55
2023-01-10T12:37:49.588Z,1.10
2023-01-10T12:40:25.319Z,1.85
2023-01-10T12:43:15.591Z,2.92
2023-01-10T12:45:50.457Z,2.50
2023-01-10T12:48:25.497Z,2.17
2023-01-10T12:50:58.877Z,2.92
2023-01-10T12:53:35.075Z,1.77
2023-01-10T12:56:08.054Z,2.40
2023-01-10T12:58:44.184Z,0.73
2023-01-10T13:01:15.947Z,1.48
2023-01-10T13:03:46.078Z,2.28
2023-01-10T13:06:22.676Z,2.92
2023-01-10T13:08:53.084Z,1.65
2023-01-10T13:11:25.941Z,1.02
2023-01-10T13:14:00.662Z,1.95
2023-01-10T13:16:36.639Z,5.32
2023-01-10T13:24:26.419Z,1.95
2023-01-10T13:26:58.296Z,1.50
2023-01-10T13:29:30.269Z,3.60
2023-01-10T13:32:02.121Z,1.45
2023-01-10T13:34:35.426Z,1.92
2023-01-10T13:37:12.188Z,1.25
2023-01-10T13:39:46.060Z,1.38
2023-01-10T13:42:47.594Z,0.73
2023-01-10T13:45:20.877Z,1.83
2023-01-10T13:48:03.492Z,2.63
2023-01-10T13:50:50.625Z,1.92
2023-01-10T13:53:58.319Z,1.83
2023-01-10T13:56:34.557Z,0.88
2023-01-10T13:59:20.831Z,2.47
2023-01-10T14:02:11.561Z,2.78
2023-01-10T14:04:46.067Z,1.10
2023-01-10T14:07:25.188Z,1.75
2023-01-10T14:09:59.382Z,1.80
2023-01-10T14:12:35.553Z,2.05
2023-01-10T14:15:08.269Z,2.60
2023-01-10T14:17:38.041Z,4.57
2023-01-10T14:20:20.372Z,1.88
2023-01-10T14:23:00.804Z,3.85
2023-01-10T14:25:30.382Z,3.47
2023-01-10T14:28:01.604Z,3.17
2023-01-10T14:30:33.083Z,1.90
2023-01-10T14:33:05.865Z,2.28
2023-01-10T14:35:38.646Z,3.25
2023-01-10T14:38:13.745Z,2.85
2023-01-10T14:40:46.213Z,5.20
2023-01-10T14:43:18.092Z,2.88
2023-01-10T14:45:52.996Z,1.60
2023-01-10T14:48:27.542Z,3.30
2023-01-10T14:51:14.875Z,2.38
2023-01-10T14:53:43.061Z,1.65
2023-01-10T14:56:20.473Z,3.75
2023-01-10T14:58:50.059Z,2.13
2023-01-10T15:01:24.184Z,1.80
2023-01-10T15:03:53.684Z,1.48
2023-01-10T15:06:23.563Z,1.65
2023-01-10T15:09:00.367Z,2.92
2023-01-10T15:11:31.596Z,1.13
2023-01-10T15:14:05.360Z,1.65
2023-01-10T15:16:34.867Z,6.40
2023-01-10T15:19:03.456Z,2.35
2023-01-10T15:21:31.874Z,1.45
2023-01-10T15:24:00.132Z,1.65
2023-01-10T15:26:33.321Z,1.95
2023-01-10T15:29:13.551Z,2.42
2023-01-10T15:31:42.759Z,0.63
2023-01-10T15:34:16.292Z,1.75
2023-01-10T15:36:49.713Z,1.73
2023-01-10T15:39:21.805Z,3.45
2023-01-10T15:41:51.236Z,1.77
2023-01-10T15:44:37.243Z,2.17
2023-01-10T15:47:05.933Z,3.33
2023-01-10T15:49:38.171Z,1.23
2023-01-10T15:52:22.495Z,1.95
2023-01-10T15:54:50.660Z,2.90
2023-01-10T15:57:29.668Z,4.15
2023-01-10T16:00:00.264Z,6.13
2023-01-10T16:02:34.793Z,2.05
2023-01-10T16:05:11.506Z,4.15
2023-01-10T16:07:44.905Z,3.65
2023-01-10T16:10:20.908Z,2.78
2023-01-10T16:15:39.011Z,2.28
2023-01-10T16:18:07.448Z,1.50
2023-01-10T16:20:38.119Z,3.67
2023-01-10T16:23:17.888Z,1.63
2023-01-10T16:25:49.323Z,2.08
2023-01-10T16:28:19.284Z,3.88
2023-01-10T16:30:49.232Z,3.50
2023-01-10T16:33:19.511Z,8.68
2023-01-10T16:35:51.286Z,2.22
2023-01-10T16:38:19.876Z,2.75
2023-01-10T16:40:51.337Z,2.40
2023-01-10T16:43:18.791Z,4.72
2023-01-10T16:45:49.670Z,9.07
2023-01-10T16:48:19.708Z,2.47
2023-01-10T16:50:49.283Z,2.72
2023-01-10T16:53:19.236Z,6.70
2023-01-10T16:55:49.669Z,1.83
2023-01-10T16:58:19.618Z,2.55
2023-01-10T17:00:51.035Z,1.98
2023-01-10T17:03:24.481Z,4.53
2023-01-10T17:05:53.455Z,4.10
2023-01-10T17:08:23.301Z,7.25
2023-01-10T17:10:56.379Z,6.65
2023-01-10T17:13:27.971Z,7.03
2023-01-10T17:15:58.760Z,5.80
2023-01-10T17:18:29.275Z,4.50
2023-01-10T17:20:59.458Z,5.45
2023-01-10T17:23:29.598Z,4.57
2023-01-10T17:26:01.696Z,3.95
2023-01-10T17:28:30.610Z,5.53
2023-01-10T17:31:00.738Z,4.80
2023-01-10T17:33:28.992Z,3.75
2023-01-10T17:35:59.216Z,2.47
2023-01-10T17:38:31.716Z,4.80
2023-01-10T17:41:03.265Z,4.47
2023-01-10T17:43:32.270Z,4.13
2023-01-10T17:46:05.819Z,6.15
2023-01-10T17:48:35.270Z,7.82
2023-01-10T17:51:04.567Z,5.20
2023-01-10T17:53:33.024Z,8.00
2023-01-10T17:56:01.386Z,5.75
2023-01-10T17:58:30.156Z,9.20
2023-01-10T18:00:58.993Z,6.05
2023-01-10T18:03:29.523Z,7.05
2023-01-10T18:05:59.852Z,5.57
2023-01-10T18:08:28.466Z,9.13
2023-01-10T18:11:01.499Z,10.77
2023-01-10T18:13:31.636Z,8.82
2023-01-10T18:16:00.869Z,6.75
2023-01-10T18:18:31.684Z,8.60
2023-01-10T18:21:02.347Z,6.72
2023-01-10T18:23:31.740Z,10.18
2023-01-10T18:26:03.013Z,9.40
2023-01-10T18:28:40.895Z,7.85
2023-01-10T18:31:12.432Z,5.78
2023-01-10T18:33:42.440Z,7.22
2023-01-10T18:36:15.598Z,7.65
2023-01-10T18:38:44.986Z,6.75
2023-01-10T18:41:14.238Z,8.02
2023-01-10T18:43:43.632Z,5.03
2023-01-10T18:46:14.290Z,4.32
2023-01-10T18:48:44.669Z,5.35
2023-01-10T18:51:15.849Z,4.50
2023-01-10T18:53:45.003Z,5.57
2023-01-10T18:56:13.682Z,6.20
2023-01-10T18:58:47.700Z,4.82
2023-01-10T19:01:18.113Z,5.15
2023-01-10T19:03:50.337Z,6.85
2023-01-10T19:06:22.490Z,8.27
2023-01-10T19:08:54.281Z,8.95
2023-01-10T19:11:23.291Z,6.40
2023-01-10T19:13:54.280Z,7.00
2023-01-10T19:16:25.165Z,5.88
2023-01-10T19:19:01.598Z,6.82
2023-01-10T19:21:32.038Z,9.25
2023-01-10T19:24:05.101Z,6.20
2023-01-10T19:26:34.055Z,6.07
2023-01-10T19:29:05.306Z,11.15
2023-01-10T19:31:34.075Z,8.02
2023-01-10T19:34:04.571Z,8.88
2023-01-10T19:36:35.070Z,7.35
2023-01-10T19:39:05.425Z,8.98
2023-01-10T19:41:36.253Z,5.28
2023-01-10T19:44:08.970Z,12.60
2023-01-10T19:46:41.135Z,7.45
2023-01-10T19:49:20.252Z,6.15
2023-01-10T19:51:53.832Z,12.65
2023-01-10T19:54:24.581Z,8.88
2023-01-10T19:56:53.136Z,6.72
2023-01-10T19:59:21.368Z,3.28
2023-01-10T20:01:50.038Z,8.75
2023-01-10T20:04:20.709Z,9.35
2023-01-10T20:06:51.208Z,6.78
2023-01-10T20:09:20.800Z,8.93
2023-01-10T20:11:49.318Z,7.07
2023-01-10T20:14:20.403Z,9.23
2023-01-10T20:16:53.382Z,8.43
2023-01-10T20:19:24.092Z,5.55
2023-01-10T20:21:54.023Z,6.53
2023-01-10T20:24:25.960Z,6.38
2023-01-10T20:26:54.426Z,8.95
2023-01-10T20:29:22.608Z,6.88
2023-01-10T20:31:56.254Z,9.38
2023-01-10T20:34:26.269Z,8.40
2023-01-10T20:36:55.222Z,8.93
2023-01-10T20:39:25.637Z,8.25
2023-01-10T20:41:54.064Z,5.75
2023-01-10T20:44:23.594Z,8.65
2023-01-10T20:46:52.506Z,5.18
2023-01-10T20:49:21.926Z,5.93
2023-01-10T20:51:53.814Z,7.50
2023-01-10T20:54:22.307Z,4.10
2023-01-10T20:56:50.583Z,5.45
2023-01-10T20:59:19.270Z,6.45
2023-01-10T21:01:47.796Z,4.75
2023-01-10T21:04:16.031Z,7.25
2023-01-10T21:06:44.376Z,5.32
2023-01-10T21:09:16.722Z,5.43
2023-01-10T21:11:59.981Z,7.03
2023-01-10T21:14:32.724Z,9.98
2023-01-10T21:17:00.884Z,7.10
2023-01-10T21:19:29.164Z,6.15
2023-01-10T21:21:57.461Z,5.63
2023-01-10T21:24:27.362Z,4.97
2023-01-10T21:26:55.550Z,6.05
2023-01-10T21:29:30.908Z,5.82
2023-01-10T21:31:59.178Z,6.75
2023-01-10T21:34:27.680Z,7.85
2023-01-10T21:36:57.091Z,4.70
2023-01-10T21:39:26.843Z,6.90
2023-01-10T21:42:12.662Z,8.30
2023-01-10T21:44:40.904Z,5.88
2023-01-10T21:47:09.039Z,8.98
2023-01-10T21:49:37.208Z,7.07
2023-01-10T21:52:05.586Z,8.50
2023-01-10T21:54:35.205Z,7.32
2023-01-10T21:57:03.821Z,8.57
2023-01-10T21:59:32.080Z,7.97
2023-01-10T22:02:00.253Z,5.25
2023-01-10T22:04:28.487Z,9.38
2023-01-10T22:06:57.789Z,8.75
2023-01-10T22:09:26.388Z,5.95
2023-01-10T22:11:56.121Z,7.38
2023-01-10T22:14:24.248Z,17.35
2023-01-10T22:16:52.420Z,13.70
2023-01-10T22:19:20.605Z,7.68
2023-01-10T22:21:48.861Z,8.80
2023-01-10T22:24:17.232Z,12.35
2023-01-10T22:26:45.369Z,6.60
2023-01-10T22:29:16.260Z,8.75
2023-01-10T22:31:44.417Z,8.75
2023-01-10T22:34:12.981Z,7.55
2023-01-10T22:36:41.232Z,6.05
2023-01-10T22:39:09.857Z,7.20
2023-01-10T22:41:39.092Z,5.95
2023-01-10T22:44:07.941Z,9.00
2023-01-10T22:46:37.553Z,8.48
2023-01-10T22:49:05.670Z,7.15
2023-01-10T22:51:35.631Z,17.45
2023-01-10T22:54:04.565Z,8.60
2023-01-10T22:56:32.836Z,7.68
2023-01-10T22:59:01.009Z,8.38
2023-01-10T23:01:29.071Z,8.55
2023-01-10T23:03:58.933Z,8.60
2023-01-10T23:06:27.106Z,6.95
2023-01-10T23:08:55.222Z,12.63
2023-01-10T23:11:23.568Z,5.90
2023-01-10T23:13:51.809Z,8.82
2023-01-10T23:16:22.129Z,5.40
2023-01-10T23:18:50.814Z,7.60
2023-01-10T23:21:20.316Z,6.75
2023-01-10T23:23:48.341Z,7.65
2023-01-10T23:26:16.479Z,13.13
2023-01-10T23:28:47.067Z,7.05
2023-01-10T23:31:16.977Z,8.32
2023-01-10T23:33:45.105Z,5.90
2023-01-10T23:36:13.241Z,10.43
2023-01-10T23:38:42.788Z,5.90
2023-01-10T23:41:11.257Z,6.88
2023-01-10T23:43:39.378Z,10.88
2023-01-10T23:46:08.242Z,6.03
2023-01-10T23:48:36.787Z,4.28
2023-01-10T23:51:07.698Z,7.15
2023-01-10T23:53:35.841Z,7.10
2023-01-10T23:56:09.450Z,8.30
2023-01-10T23:58:41.767Z,6.80
